Terminal Aerodrome Forecast
Issued by NWS

Home | Current Version | Previous Version | Text Only | Print | Product List | Glossary On
Versions: 1 2 3 4 5 6 7 8 9 10 11 12 13 14
000
FTUS45 KABQ 101732
TAFSAF
TAF
KSAF 101732Z 1018/1118 25010KT P6SM SCT200
     FM110400 31011KT P6SM BKN120
     FM111600 28014G23KT P6SM BKN100=

USA.gov is the U.S. government's official web portal to all federal, state and local government web resources and services.